createdAt,value
2018-01-22T00:01:38.263Z,-0.20
2018-01-22T00:04:07.074Z,-0.10
2018-01-22T00:06:36.250Z,-0.10
2018-01-22T00:09:05.028Z,-0.10
2018-01-22T00:11:33.869Z,0.00
2018-01-22T00:14:03.050Z,0.10
2018-01-22T00:16:31.417Z,0.00
2018-01-22T00:18:59.864Z,0.00
2018-01-22T00:21:28.989Z,0.10
2018-01-22T00:23:57.341Z,0.10
2018-01-22T00:26:25.821Z,0.00
2018-01-22T00:28:54.174Z,0.00
2018-01-22T00:31:22.572Z,0.10
2018-01-22T00:33:52.127Z,0.00
2018-01-22T00:36:20.500Z,0.00
2018-01-22T00:38:48.900Z,0.00
2018-01-22T00:41:17.347Z,-0.10
2018-01-22T00:43:46.496Z,-0.10
2018-01-22T00:46:14.879Z,-0.10
2018-01-22T00:48:43.304Z,-0.10
2018-01-22T00:51:12.474Z,-0.20
2018-01-22T00:53:42.540Z,-0.20
2018-01-22T00:56:11.682Z,-0.20
2018-01-22T00:58:40.073Z,-0.20
2018-01-22T01:01:08.564Z,-0.20
2018-01-22T01:03:36.937Z,-0.20
2018-01-22T01:06:06.105Z,-0.20
2018-01-22T01:08:34.631Z,-0.20
2018-01-22T01:11:03.531Z,-0.20
2018-01-22T01:13:31.936Z,-0.20
2018-01-22T01:16:01.128Z,-0.30
2018-01-22T01:18:29.513Z,-0.20
2018-01-22T01:20:57.963Z,-0.20
2018-01-22T01:23:26.324Z,-0.20
2018-01-22T01:25:54.702Z,-0.20
2018-01-22T01:28:27.029Z,-0.20
2018-01-22T01:30:55.999Z,-0.10
2018-01-22T01:33:24.359Z,-0.20
2018-01-22T01:35:53.568Z,-0.30
2018-01-22T01:38:22.725Z,-0.30
2018-01-22T01:40:51.076Z,-0.30
2018-01-22T01:43:19.546Z,-0.20
2018-01-22T01:45:47.914Z,-0.20
2018-01-22T01:48:17.044Z,-0.30
2018-01-22T01:50:49.627Z,-0.30
2018-01-22T01:53:18.641Z,-0.30
2018-01-22T01:55:47.066Z,-0.30
2018-01-22T01:58:16.188Z,-0.30
2018-01-22T02:00:44.566Z,-0.30
2018-01-22T02:03:13.000Z,-0.30
2018-01-22T02:05:41.360Z,-0.30
2018-01-22T02:08:09.727Z,-0.30
2018-01-22T02:10:38.174Z,-0.30
2018-01-22T02:13:07.293Z,-0.30
2018-01-22T02:15:36.422Z,-0.30
2018-01-22T02:18:04.906Z,-0.30
2018-01-22T02:20:33.297Z,-0.30
2018-01-22T02:23:01.670Z,-0.30
2018-01-22T02:25:30.091Z,-0.30
2018-01-22T02:27:58.473Z,-0.30
2018-01-22T02:30:26.889Z,-0.30
2018-01-22T02:32:56.109Z,-0.30
2018-01-22T02:35:24.482Z,-0.40
2018-01-22T02:37:52.900Z,-0.30
2018-01-22T02:40:21.413Z,-0.30
2018-01-22T02:42:49.807Z,-0.40
2018-01-22T02:45:18.957Z,-0.30
2018-01-22T02:47:48.349Z,-0.30
2018-01-22T02:50:17.493Z,-0.20
2018-01-22T02:52:46.668Z,-0.20
2018-01-22T02:55:15.139Z,-0.20
2018-01-22T02:57:43.555Z,-0.30
2018-01-22T03:00:11.933Z,-0.20
2018-01-22T03:02:40.436Z,-0.30
2018-01-22T03:05:08.821Z,-0.20
2018-01-22T03:07:37.994Z,-0.20
2018-01-22T03:10:06.514Z,-0.20
2018-01-22T03:12:34.935Z,-0.10
2018-01-22T03:15:03.724Z,-0.20
2018-01-22T03:17:32.178Z,-0.10
2018-01-22T03:20:00.579Z,-0.20
2018-01-22T03:22:29.749Z,-0.10
2018-01-22T03:24:58.220Z,-0.10
2018-01-22T03:27:26.578Z,-0.10
2018-01-22T03:29:54.953Z,0.00
2018-01-22T03:32:24.133Z,0.10
2018-01-22T03:34:53.485Z,0.20
2018-01-22T03:37:21.865Z,0.20
2018-01-22T03:39:50.234Z,0.40
2018-01-22T03:42:18.748Z,0.40
2018-01-22T03:44:47.105Z,0.60
2018-01-22T03:47:15.455Z,0.70
2018-01-22T03:49:44.678Z,0.80
2018-01-22T03:52:13.833Z,0.90
2018-01-22T03:54:42.214Z,0.80
2018-01-22T03:57:10.620Z,1.00
2018-01-22T03:59:39.146Z,0.90
2018-01-22T04:02:07.519Z,0.90
2018-01-22T04:04:36.906Z,0.80
2018-01-22T04:07:06.517Z,0.80
2018-01-22T04:09:35.042Z,0.80
2018-01-22T04:12:03.408Z,0.90
2018-01-22T04:14:31.785Z,0.90
2018-01-22T04:17:01.263Z,0.90
2018-01-22T04:19:29.631Z,0.90
2018-01-22T04:21:57.974Z,0.90
2018-01-22T04:24:26.391Z,0.90
2018-01-22T04:26:55.541Z,0.80
2018-01-22T04:29:24.688Z,0.90
2018-01-22T04:31:53.139Z,0.90
2018-01-22T04:34:22.275Z,0.90
2018-01-22T04:36:50.662Z,0.90
2018-01-22T04:39:19.129Z,0.90
2018-01-22T04:41:47.511Z,0.90
2018-01-22T04:44:15.870Z,0.90
2018-01-22T04:46:45.197Z,1.00
2018-01-22T04:49:13.578Z,1.00
2018-01-22T04:51:42.015Z,1.00
2018-01-22T04:54:11.183Z,1.00
2018-01-22T04:56:39.686Z,1.00
2018-01-22T04:59:08.068Z,1.00
2018-01-22T05:01:36.418Z,1.00
2018-01-22T05:04:05.838Z,1.10
2018-01-22T05:06:34.247Z,1.10
2018-01-22T05:09:02.739Z,1.10
2018-01-22T05:11:32.641Z,1.10
2018-01-22T05:14:01.001Z,1.10
2018-01-22T05:16:30.847Z,1.10
2018-01-22T05:18:59.943Z,1.10
2018-01-22T05:21:28.376Z,1.10
2018-01-22T05:23:56.751Z,1.10
2018-01-22T05:26:26.193Z,1.00
2018-01-22T05:28:54.577Z,0.90
2018-01-22T05:31:23.102Z,1.00
2018-01-22T05:33:51.462Z,0.90
2018-01-22T05:36:19.810Z,1.00
2018-01-22T05:38:48.171Z,1.10
2018-01-22T05:41:17.717Z,1.10
2018-01-22T05:43:46.165Z,1.10
2018-01-22T05:46:15.316Z,1.10
2018-01-22T05:48:43.771Z,1.10
2018-01-22T05:51:12.151Z,1.20
2018-01-22T05:53:41.415Z,1.40
2018-01-22T05:56:09.886Z,1.30
2018-01-22T05:58:38.274Z,1.50
2018-01-22T06:01:06.605Z,1.60
2018-01-22T06:03:35.069Z,1.70
2018-01-22T06:06:03.454Z,1.90
2018-01-22T06:08:32.622Z,2.20
2018-01-22T06:11:01.120Z,2.20
2018-01-22T06:13:29.496Z,2.40
2018-01-22T06:15:57.896Z,2.70
2018-01-22T06:18:27.515Z,3.00
2018-01-22T06:20:56.290Z,3.00
2018-01-22T06:23:24.762Z,3.20
2018-01-22T06:25:53.277Z,3.40
2018-01-22T06:28:21.688Z,3.50
2018-01-22T06:30:50.838Z,3.50
2018-01-22T06:33:19.347Z,3.50
2018-01-22T06:35:47.717Z,3.50
2018-01-22T06:38:16.094Z,3.60
2018-01-22T06:40:44.881Z,3.80
2018-01-22T06:43:13.224Z,3.80
2018-01-22T06:45:41.622Z,3.90
2018-01-22T06:48:10.094Z,4.00
2018-01-22T06:50:38.472Z,4.00
2018-01-22T06:53:08.240Z,4.00
2018-01-22T06:55:36.793Z,4.00
2018-01-22T06:58:05.171Z,4.00
2018-01-22T07:00:33.589Z,4.10
2018-01-22T07:03:02.054Z,4.20
2018-01-22T07:05:31.179Z,4.40
2018-01-22T07:07:59.582Z,4.40
2018-01-22T07:10:28.048Z,4.40
2018-01-22T07:12:56.447Z,4.50
2018-01-22T07:15:24.935Z,4.50
2018-01-22T07:17:53.412Z,4.50
2018-01-22T07:20:21.774Z,4.60
2018-01-22T07:22:50.528Z,4.60
2018-01-22T07:25:18.962Z,4.60
2018-01-22T07:27:47.375Z,4.60
2018-01-22T07:30:15.873Z,4.60
2018-01-22T07:32:44.264Z,4.60
2018-01-22T07:35:12.645Z,4.70
2018-01-22T07:37:41.099Z,4.70
2018-01-22T07:40:09.823Z,4.70
2018-01-22T07:42:38.214Z,4.70
2018-01-22T07:45:06.645Z,4.70
2018-01-22T07:47:35.040Z,4.70
2018-01-22T07:50:03.408Z,4.80
2018-01-22T07:52:31.876Z,4.80
2018-01-22T07:55:00.246Z,4.80
2018-01-22T07:57:28.621Z,4.80
2018-01-22T07:59:57.114Z,4.90
2018-01-22T08:02:25.586Z,4.90
2018-01-22T08:04:54.186Z,5.00
2018-01-22T08:07:22.661Z,5.00
2018-01-22T08:09:51.045Z,5.00
2018-01-22T08:12:19.420Z,5.10
2018-01-22T08:14:47.890Z,5.10
2018-01-22T08:17:17.052Z,5.10
2018-01-22T08:19:45.431Z,5.10
2018-01-22T08:22:14.803Z,5.20
2018-01-22T08:24:43.214Z,5.20
2018-01-22T08:27:14.623Z,5.30
2018-01-22T08:29:43.756Z,5.40
2018-01-22T08:32:12.138Z,5.40
2018-01-22T08:34:40.629Z,5.50
2018-01-22T08:37:09.038Z,5.50
2018-01-22T08:39:37.441Z,5.60
2018-01-22T08:42:05.916Z,5.60
2018-01-22T08:44:34.295Z,5.60
2018-01-22T08:47:02.674Z,5.60
2018-01-22T08:49:31.183Z,5.60
2018-01-22T08:52:00.327Z,5.60
2018-01-22T08:54:28.718Z,5.60
2018-01-22T08:56:57.203Z,5.70
2018-01-22T08:59:25.587Z,5.70
2018-01-22T09:01:54.677Z,5.80
2018-01-22T09:04:23.197Z,5.80
2018-01-22T09:06:51.552Z,5.80
2018-01-22T09:09:19.927Z,5.80
2018-01-22T09:11:49.408Z,5.90
2018-01-22T09:14:18.562Z,6.00
2018-01-22T09:16:46.939Z,6.00
2018-01-22T09:19:15.771Z,6.00
2018-01-22T09:21:44.126Z,6.00
2018-01-22T09:24:12.781Z,6.00
2018-01-22T09:26:41.283Z,6.10
2018-01-22T09:29:10.438Z,6.10
2018-01-22T09:31:38.842Z,6.10
2018-01-22T09:34:07.310Z,6.10
2018-01-22T09:36:36.476Z,6.20
2018-01-22T09:39:05.638Z,6.20
2018-01-22T09:41:34.120Z,6.20
2018-01-22T09:44:02.503Z,6.30
2018-01-22T09:46:30.904Z,6.30
2018-01-22T09:48:59.716Z,6.30
2018-01-22T09:51:28.117Z,6.30
2018-01-22T09:53:56.542Z,6.20
2018-01-22T09:56:26.157Z,6.20
2018-01-22T09:58:54.549Z,6.20
2018-01-22T10:01:22.897Z,6.20
2018-01-22T10:03:52.172Z,6.20
2018-01-22T10:06:21.361Z,6.20
2018-01-22T10:08:49.725Z,6.20
2018-01-22T10:11:18.219Z,6.20
2018-01-22T10:13:46.614Z,6.20
2018-01-22T10:16:15.036Z,6.30
2018-01-22T10:18:43.776Z,6.30
2018-01-22T10:21:12.151Z,6.30
2018-01-22T10:23:40.550Z,6.40
2018-01-22T10:26:13.027Z,6.40
2018-01-22T10:28:41.425Z,6.50
2018-01-22T10:31:09.794Z,6.50
2018-01-22T10:33:38.324Z,6.60
2018-01-22T10:36:06.722Z,6.60
2018-01-22T10:38:35.083Z,6.60
2018-01-22T10:41:03.975Z,6.60
2018-01-22T10:43:34.031Z,6.70
2018-01-22T10:46:03.245Z,6.90
2018-01-22T10:48:31.730Z,6.90
2018-01-22T10:51:00.092Z,6.90
2018-01-22T10:53:29.233Z,7.00
2018-01-22T10:55:58.123Z,7.00
2018-01-22T10:58:26.495Z,7.00
2018-01-22T11:00:55.629Z,7.10
2018-01-22T11:03:24.894Z,7.10
2018-01-22T11:05:53.312Z,7.10
2018-01-22T11:08:21.674Z,7.20
2018-01-22T11:10:50.152Z,7.20
2018-01-22T11:13:18.531Z,7.30
2018-01-22T11:15:52.687Z,7.30
2018-01-22T11:18:21.018Z,7.30
2018-01-22T11:20:50.178Z,7.20
2018-01-22T11:23:18.652Z,7.20
2018-01-22T11:25:47.043Z,7.20
2018-01-22T11:28:15.610Z,7.10
2018-01-22T11:30:44.179Z,7.10
2018-01-22T11:33:12.584Z,7.20
2018-01-22T11:35:40.947Z,7.10
2018-01-22T11:38:09.483Z,7.10
2018-01-22T11:40:38.616Z,7.10
2018-01-22T11:43:07.063Z,7.10
2018-01-22T11:45:36.432Z,7.20
2018-01-22T11:48:05.884Z,7.20
2018-01-22T11:50:34.265Z,7.20
2018-01-22T11:53:02.790Z,7.20
2018-01-22T11:55:31.357Z,7.10
2018-01-22T11:57:59.718Z,7.10
2018-01-22T12:00:28.327Z,7.10
2018-01-22T12:02:57.479Z,7.10
2018-01-22T12:05:25.955Z,7.10
2018-01-22T12:07:54.437Z,7.10
2018-01-22T12:10:23.580Z,7.10
2018-01-22T12:12:51.992Z,7.10
2018-01-22T12:15:20.480Z,7.10
2018-01-22T12:17:49.677Z,7.10
2018-01-22T12:20:18.544Z,7.10
2018-01-22T12:22:47.881Z,7.10
2018-01-22T12:25:16.270Z,7.10
2018-01-22T12:27:44.698Z,7.00
2018-01-22T12:30:13.548Z,7.00
2018-01-22T12:32:42.852Z,6.90
2018-01-22T12:35:12.026Z,6.90
2018-01-22T12:37:40.611Z,6.90
2018-01-22T12:40:08.988Z,6.90
2018-01-22T12:42:37.418Z,6.90
2018-01-22T12:45:05.958Z,6.90
2018-01-22T12:47:34.432Z,6.90
2018-01-22T12:50:02.833Z,6.80
2018-01-22T12:52:31.650Z,6.80
2018-01-22T12:55:00.107Z,6.60
2018-01-22T12:57:28.481Z,6.60
2018-01-22T13:00:01.629Z,6.60
2018-01-22T13:02:30.343Z,6.50
2018-01-22T13:04:58.717Z,6.50
2018-01-22T13:07:27.185Z,6.50
2018-01-22T13:09:55.552Z,6.50
2018-01-22T13:12:23.938Z,6.50
2018-01-22T13:14:52.809Z,6.50
2018-01-22T13:17:21.198Z,6.40
2018-01-22T13:19:50.354Z,6.50
2018-01-22T13:22:18.978Z,6.50
2018-01-22T13:24:49.022Z,6.50
2018-01-22T13:27:18.308Z,6.40
2018-01-22T13:29:46.710Z,6.40
2018-01-22T13:32:15.674Z,6.40
2018-01-22T13:34:44.182Z,6.40
2018-01-22T13:37:12.641Z,6.40
2018-01-22T13:39:41.143Z,6.40
2018-01-22T13:42:09.805Z,6.40
2018-01-22T13:44:38.316Z,6.30
2018-01-22T13:47:07.508Z,6.30
2018-01-22T13:49:36.047Z,6.40
2018-01-22T13:52:04.468Z,6.40
2018-01-22T13:54:33.706Z,6.40
2018-01-22T13:57:02.273Z,6.40
2018-01-22T13:59:30.710Z,6.40
2018-01-22T14:01:59.136Z,6.50
2018-01-22T14:04:28.603Z,6.60
2018-01-22T14:06:57.083Z,6.60
2018-01-22T14:09:25.756Z,6.70
2018-01-22T14:11:55.268Z,7.00
2018-01-22T14:14:23.828Z,7.00
2018-01-22T14:16:52.203Z,7.20
2018-01-22T14:19:21.524Z,7.40
2018-01-22T14:21:49.883Z,7.50
2018-01-22T14:24:21.907Z,7.50
2018-01-22T14:26:50.321Z,7.40
2018-01-22T14:29:18.842Z,7.40
2018-01-22T14:31:47.469Z,7.30
2018-01-22T14:34:16.322Z,7.20
2018-01-22T14:36:44.851Z,7.10
2018-01-22T14:39:15.013Z,7.00
2018-01-22T14:41:43.407Z,7.00
2018-01-22T14:44:11.802Z,6.90
2018-01-22T14:46:41.057Z,6.70
2018-01-22T14:49:10.245Z,6.70
2018-01-22T14:51:38.699Z,6.70
2018-01-22T14:54:09.088Z,6.70
2018-01-22T14:56:37.494Z,6.70
2018-01-22T14:59:05.861Z,6.60
2018-01-22T15:01:34.352Z,6.60
2018-01-22T15:04:02.815Z,6.60
2018-01-22T15:06:31.442Z,6.60
2018-01-22T15:09:00.013Z,6.50
2018-01-22T15:11:28.413Z,6.50
2018-01-22T15:13:56.812Z,6.50
2018-01-22T15:16:25.307Z,6.50
2018-01-22T15:18:53.774Z,6.50
2018-01-22T15:21:22.168Z,6.60
2018-01-22T15:23:50.722Z,6.50
2018-01-22T15:26:19.126Z,6.40
2018-01-22T15:28:47.474Z,6.40
2018-01-22T15:31:16.767Z,6.30
2018-01-22T15:33:45.210Z,6.30
2018-01-22T15:36:15.077Z,6.30
2018-01-22T15:38:44.923Z,6.30
2018-01-22T15:41:13.309Z,6.30
2018-01-22T15:43:41.694Z,6.30
2018-01-22T15:46:10.180Z,6.30
2018-01-22T15:48:38.559Z,6.30
2018-01-22T15:51:06.954Z,6.30
2018-01-22T15:53:35.816Z,6.20
2018-01-22T15:56:04.978Z,6.20
2018-01-22T15:58:33.401Z,6.20
2018-01-22T16:01:02.636Z,6.20
2018-01-22T16:03:31.015Z,6.20
2018-01-22T16:05:59.364Z,6.20
2018-01-22T16:08:28.576Z,6.30
2018-01-22T16:10:57.723Z,6.20
2018-01-22T16:13:26.073Z,6.20
2018-01-22T16:15:54.603Z,6.30
2018-01-22T16:18:22.970Z,6.30
2018-01-22T16:20:51.339Z,6.30
2018-01-22T16:23:20.409Z,6.20
2018-01-22T16:25:48.772Z,6.20
2018-01-22T16:28:17.954Z,6.30
2018-01-22T16:30:46.387Z,6.30
2018-01-22T16:33:15.554Z,6.20
2018-01-22T16:35:44.945Z,6.30
2018-01-22T16:38:13.951Z,6.20
2018-01-22T16:40:42.346Z,6.20
2018-01-22T16:43:11.515Z,6.20
2018-01-22T16:45:40.288Z,6.20
2018-01-22T16:48:09.425Z,6.20
2018-01-22T16:50:37.819Z,6.20
2018-01-22T16:53:07.432Z,6.20
2018-01-22T16:55:36.724Z,6.30
2018-01-22T16:58:05.167Z,6.20
2018-01-22T17:00:33.650Z,6.20
2018-01-22T17:03:02.251Z,6.30
2018-01-22T17:05:30.662Z,6.30
2018-01-22T17:07:59.124Z,6.30
2018-01-22T17:10:27.545Z,6.30
2018-01-22T17:12:56.748Z,6.20
2018-01-22T17:15:26.566Z,6.10
2018-01-22T17:17:56.804Z,6.20
2018-01-22T17:20:25.344Z,6.20
2018-01-22T17:22:53.825Z,6.10
2018-01-22T17:25:23.018Z,6.20
2018-01-22T17:27:51.404Z,6.20
2018-01-22T17:30:20.062Z,6.10
2018-01-22T17:32:48.489Z,6.00
2018-01-22T17:35:16.928Z,5.90
2018-01-22T17:37:46.297Z,6.00
2018-01-22T17:40:15.161Z,6.00
2018-01-22T17:42:43.517Z,6.00
2018-01-22T17:45:13.224Z,6.00
2018-01-22T17:47:41.826Z,6.00
2018-01-22T17:50:10.200Z,6.00
2018-01-22T17:52:38.924Z,6.00
2018-01-22T17:55:07.315Z,6.00
2018-01-22T17:57:35.755Z,6.10
2018-01-22T18:00:05.548Z,6.00
2018-01-22T18:02:34.187Z,6.00
2018-01-22T18:05:03.147Z,6.00
2018-01-22T18:07:32.457Z,5.90
2018-01-22T18:10:02.206Z,5.90
2018-01-22T18:12:30.793Z,5.90
2018-01-22T18:14:59.624Z,5.90
2018-01-22T18:17:28.143Z,5.90
2018-01-22T18:19:57.084Z,5.90
2018-01-22T18:22:25.669Z,5.90
2018-01-22T18:24:54.759Z,5.90
2018-01-22T18:27:24.854Z,5.90
2018-01-22T18:29:53.662Z,6.00
2018-01-22T18:32:22.482Z,5.90
2018-01-22T18:34:51.661Z,5.90
2018-01-22T18:37:21.103Z,5.90
2018-01-22T18:39:50.694Z,5.90
2018-01-22T18:42:20.859Z,5.90
2018-01-22T18:44:49.630Z,5.90
2018-01-22T18:47:18.925Z,5.90
2018-01-22T18:49:47.772Z,5.90
2018-01-22T18:52:16.389Z,6.00
2018-01-22T18:54:45.555Z,6.00
2018-01-22T18:57:14.513Z,6.00
2018-01-22T18:59:44.900Z,6.00
2018-01-22T19:02:13.966Z,6.00
2018-01-22T19:04:42.405Z,5.90
2018-01-22T19:07:10.850Z,5.90
2018-01-22T19:09:40.842Z,5.90
2018-01-22T19:12:09.317Z,5.90
2018-01-22T19:14:37.720Z,5.90
2018-01-22T19:17:06.654Z,5.80
2018-01-22T19:19:35.917Z,5.80
2018-01-22T19:22:05.310Z,5.70
2018-01-22T19:24:34.328Z,5.70
2018-01-22T19:27:02.731Z,5.70
2018-01-22T19:29:33.392Z,5.70
2018-01-22T19:32:02.586Z,5.70
2018-01-22T19:34:31.640Z,5.70
2018-01-22T19:37:00.297Z,5.60
2018-01-22T19:39:29.194Z,5.60
2018-01-22T19:41:58.728Z,5.60
2018-01-22T19:44:28.467Z,5.60
2018-01-22T19:46:58.293Z,5.60
2018-01-22T19:49:27.599Z,5.60
2018-01-22T19:51:56.356Z,5.60
2018-01-22T19:54:34.290Z,5.60
2018-01-22T19:57:02.779Z,5.60
2018-01-22T19:59:32.224Z,5.60
2018-01-22T20:02:00.964Z,5.60
2018-01-22T20:04:30.518Z,5.60
2018-01-22T20:07:00.768Z,5.60
2018-01-22T20:09:30.419Z,5.60
2018-01-22T20:11:59.482Z,5.60
2018-01-22T20:14:28.505Z,5.60
2018-01-22T20:16:57.989Z,5.50
2018-01-22T20:19:26.988Z,5.60
2018-01-22T20:21:56.938Z,5.60
2018-01-22T20:24:25.491Z,5.60
2018-01-22T20:26:53.936Z,5.60
2018-01-22T20:29:22.539Z,5.60
2018-01-22T20:31:51.371Z,5.60
2018-01-22T20:34:19.907Z,5.60
2018-01-22T20:36:53.208Z,5.60
2018-01-22T20:39:21.801Z,5.60
2018-01-22T20:41:50.224Z,5.60
2018-01-22T20:44:22.156Z,5.60
2018-01-22T20:46:51.085Z,5.60
2018-01-22T20:49:20.492Z,5.70
2018-01-22T20:51:49.121Z,5.60
2018-01-22T20:54:17.625Z,5.60
2018-01-22T20:56:46.114Z,5.70
2018-01-22T20:59:14.727Z,5.70
2018-01-22T21:01:43.224Z,5.70
2018-01-22T21:04:11.683Z,5.70
2018-01-22T21:06:40.594Z,5.70
2018-01-22T21:09:09.003Z,5.70
2018-01-22T21:11:37.552Z,5.70
2018-01-22T21:14:06.611Z,5.70
2018-01-22T21:16:35.059Z,5.70
2018-01-22T21:19:03.952Z,5.60
2018-01-22T21:21:32.638Z,5.60
2018-01-22T21:24:02.372Z,5.60
2018-01-22T21:26:31.146Z,5.70
2018-01-22T21:29:00.372Z,5.70
2018-01-22T21:31:28.787Z,5.70
2018-01-22T21:33:57.565Z,5.60
2018-01-22T21:36:28.310Z,5.60
2018-01-22T21:38:58.362Z,5.60
2018-01-22T21:41:27.544Z,5.60
2018-01-22T21:43:56.442Z,5.60
2018-01-22T21:46:25.271Z,5.70
2018-01-22T21:48:54.479Z,5.70
2018-01-22T21:51:23.563Z,5.70
2018-01-22T21:53:54.348Z,5.70
2018-01-22T21:56:23.822Z,5.70
2018-01-22T21:58:53.420Z,5.70
2018-01-22T22:01:22.437Z,5.70
2018-01-22T22:03:50.890Z,5.70
2018-01-22T22:06:20.211Z,5.70
2018-01-22T22:08:49.070Z,5.70
2018-01-22T22:11:17.794Z,5.70
2018-01-22T22:13:47.130Z,5.40
2018-01-22T22:16:16.336Z,5.40
2018-01-22T22:18:45.538Z,5.00
2018-01-22T22:21:13.948Z,5.00
2018-01-22T22:23:42.460Z,4.90
2018-01-22T22:26:10.886Z,4.90
2018-01-22T22:28:39.284Z,4.90
2018-01-22T22:31:07.896Z,4.80
2018-01-22T22:33:37.057Z,4.90
2018-01-22T22:36:05.846Z,4.90
2018-01-22T22:38:34.619Z,4.90
2018-01-22T22:41:03.020Z,4.90
2018-01-22T22:43:31.458Z,4.90
2018-01-22T22:46:00.722Z,4.90
2018-01-22T22:48:29.100Z,4.90
2018-01-22T22:50:57.796Z,4.90
2018-01-22T22:53:26.462Z,4.90
2018-01-22T22:55:54.887Z,4.80
2018-01-22T22:58:23.260Z,4.80
2018-01-22T23:00:52.188Z,4.80
2018-01-22T23:03:20.597Z,4.80
2018-01-22T23:05:49.073Z,4.70
2018-01-22T23:08:17.663Z,4.70
2018-01-22T23:10:46.071Z,4.60
2018-01-22T23:13:14.476Z,4.60
2018-01-22T23:15:43.289Z,4.50
2018-01-22T23:18:11.650Z,4.40
2018-01-22T23:20:40.035Z,4.20
2018-01-22T23:23:08.510Z,4.10
2018-01-22T23:25:36.910Z,4.00
2018-01-22T23:28:05.277Z,3.90
2018-01-22T23:30:33.757Z,3.80
2018-01-22T23:33:02.174Z,3.60
2018-01-22T23:35:30.564Z,3.50
2018-01-22T23:37:59.829Z,3.50
2018-01-22T23:40:28.219Z,3.50
2018-01-22T23:42:56.715Z,3.60
2018-01-22T23:45:25.233Z,3.60
2018-01-22T23:47:53.610Z,3.70
2018-01-22T23:50:22.003Z,3.60
2018-01-22T23:52:51.474Z,3.70
2018-01-22T23:55:19.886Z,3.70
2018-01-22T23:57:48.275Z,3.70
